Pittsburgh, PA

5:41 PM EDT on July 24, 2016 (GMT -0400)
White Oak, PA 15131-1531 | | Change Station
Active Advisory: Heat Advisory Active Notice: Local Storm Report

Elev 1076 ft 40.35 °N, 79.82 °W | Updated 2 seconds ago

Light Rain
Light Rain Mist
70.9 °F
Feels Like 70.9 °F
N
0.0
Wind Variable Wind from NNW
Gusts 0.0 mph

Today
High -- | Low -- °F
--% Chance of Precip.
Yesterday
High -- | Low -- °F
Precip. -- in
Pressure 30.04 in
Visibility 2.0 miles
Clouds Scattered Clouds 2800 ft
Mostly Cloudy 7500 ft
Overcast 9000 ft
Dew Point 70 °F
Humidity 97%
Rainfall 0.49 in
Snow Depth Not available.
6:10 AM 8:41 PM
Waning Gibbous, 73% visible
SPECI KAGC 242128Z 31003KT 2SM -RA BR SCT028 BKN075 OVC090 22/21 A3004 RMK AO2 WSHFT 2040 P0041 T02220206
Pressure 30.04 in
Visibility 2.0 miles
Clouds Scattered Clouds 2800 ft
Mostly Cloudy 7500 ft
Overcast 9000 ft
Dew Point 70 °F
Humidity 97%
Rainfall 0.49 in
Snow Depth Not available.
6:10 AM 8:41 PM
Waning Gibbous, 73% visible
SPECI KAGC 242128Z 31003KT 2SM -RA BR SCT028 BKN075 OVC090 22/21 A3004 RMK AO2 WSHFT 2040 P0041 T02220206

10-Day Weather Forecast

Almanac

Astronomy

Jul. 24, 2016 Rise Set
Actual Time
Civil Twilight
Nautical Twilight
Astronomical Twilight
Moon
Length of Visible Light
Length of Day
Tomorrow will be .
, % of the Moon is Illuminated

Today's Extremes

State Highs State Lows

Community

WunderPhotos

Upload Photos

1,927,195 photos uploaded!

WunderBlog® & News

Nearby

Air Quality

  Air Quality AQ Index Pollutant
Not available.

Snow Depth

Station Depth Elevation

Earthquake Activity

City Distance Mag. Time & Date
Minimum magnitude displayed is 2.5.

Coastal Water Temperatures

Place Temperature

Stations

Nearby Weather Stations

Station Location Temp. Windchill Dew Point Humidity Wind Precip. Elev Updated Type
                   

Watches & Warnings

Heat Advisory
Issued: 10:57 AM EDT Jul. 24, 2016 – National Weather Service

... Heat advisory remains in effect until 8 PM EDT this evening...

* heat index values... between 100 to 104 are forecast this
afternoon and evening.

* High temperatures... lower to mid 90s.

* Dewpoints... lower 70s.

* Impacts... heat related illnesses will begin to be seen. If you
are susceptible to heat... limit your outdoor activity.

Precautionary/preparedness actions...

Drink plenty of fluids... stay in air-conditioning... stay out of
the sun... and check up on elderly relatives and neighbors. Look
before you lock... never leave children and pets unattended in a
vehicle.



98